HVN Airport (Tweed-New Haven) Information

FAA: HVN - ICAO: KHVN

HVN Airport Location

State Connecticut
County New Haven
City New Haven
HVN Airport is 3 miles southeast of New Haven, CT.
Latitude 41-15-49.4980N
Longitude 072-53-12.4820W
Elevation 12ft

KHVN Airport METARs

METAR KHVN 070853Z AUTO 28006KT 10SM CLR 06/M04 A2997 RMK AO2 SLP147 T00561044 51038
Altimeter 29.97"
Temperature 5.6°C (42.1°F)
Wind 280° at 6KT
Clouds Skies are clear.
Visibility 10.0mi
Time observed: 2021-12-07T08:53:00Z

HVN Airport Details

Status Operational
Activation April 1940
Ownership Public
Usage Public
Chart NEW YORK
ATC on-site Yes
Beacon schedule sunset-sunrise
Beacon color clear green

HVN Airport Contacts

Owner CITY OF NEW HAVEN
Owner address 155 BURR STREET, NEW HAVEN, CT 06510
Owner phone 203-466-8833
Manager JAMES M SIMKINS, VICE PRES
Manager address 209 GREAT HILL RD, NAUGATUCK, CT 06770
Manager phone 203-723-7474

HVN Airport (Tweed-New Haven) Radio Frequencies

HVN (Airport) Radio Frequencies

UNICOM 122.95
Common traffic advisory frequency (CTAF) 124.8